Time;durP1;ratioP1;P1;durP2;ratioP2;P2;SDS_P1;SDS_P2;PMS_P1;PMS_P2;Temp;Humidity;BMP_temperature;BMP_pressure;BME280_temperature;BME280_humidity;BME280_pressure;Samples;Min_cycle;Max_cycle;Signal;HPM_P1;HPM_P2
2023/03/10 00:02:08;;;;;;;5.97;2.00;;;8.50;65.30;;;;;;4987533;28;114889;-79
2023/03/10 00:04:35;;;;;;;4.65;1.80;;;8.50;65.20;;;;;;4987882;28;115171;-78
2023/03/10 00:07:02;;;;;;;5.35;2.20;;;8.50;65.10;;;;;;4987968;28;114746;-78
2023/03/10 00:09:30;;;;;;;3.70;1.67;;;8.50;65.00;;;;;;4987773;28;114827;-78
2023/03/10 00:11:57;;;;;;;3.20;1.48;;;8.50;64.90;;;;;;4971341;28;114506;-79
2023/03/10 00:14:24;;;;;;;3.13;1.25;;;8.60;64.80;;;;;;4986709;28;115725;-78
2023/03/10 00:16:51;;;;;;;2.88;1.30;;;8.60;64.60;;;;;;4986737;28;115129;-79
2023/03/10 00:19:18;;;;;;;3.30;1.20;;;8.60;64.40;;;;;;4988686;28;114545;-79
2023/03/10 00:21:45;;;;;;;4.03;1.30;;;8.60;64.20;;;;;;4988987;28;114655;-78
2023/03/10 00:24:13;;;;;;;3.22;1.20;;;8.70;64.10;;;;;;4973479;28;116402;-79
2023/03/10 00:26:40;;;;;;;2.15;0.90;;;8.70;63.90;;;;;;4968312;28;114569;-79
2023/03/10 00:29:08;;;;;;;2.97;1.10;;;8.70;63.80;;;;;;4968104;28;116208;-78
2023/03/10 00:31:36;;;;;;;2.55;1.10;;;8.70;63.70;;;;;;4935703;28;114523;-79
2023/03/10 00:34:03;;;;;;;4.00;1.00;;;8.70;63.60;;;;;;4966563;28;117125;-78
2023/03/10 00:36:30;;;;;;;2.38;0.93;;;8.70;63.50;;;;;;4966887;28;114690;-79
2023/03/10 00:39:03;;;;;;;2.35;0.88;;;8.70;63.30;;;;;;4951787;28;114656;-79
2023/03/10 00:41:35;;;;;;;3.70;0.95;;;8.70;63.30;;;;;;4984536;28;114456;-79
2023/03/10 00:44:02;;;;;;;3.75;1.02;;;8.80;63.20;;;;;;4966717;28;117783;-79
2023/03/10 00:46:32;;;;;;;2.97;0.95;;;8.70;63.10;;;;;;4950812;28;114698;-79
2023/03/10 00:48:59;;;;;;;3.10;0.88;;;8.80;63.00;;;;;;4968438;28;114853;-79
2023/03/10 00:51:26;;;;;;;3.63;1.05;;;8.80;62.90;;;;;;4984504;28;114554;-79
2023/03/10 00:53:54;;;;;;;3.85;0.90;;;8.80;62.90;;;;;;4968046;28;115209;-79
2023/03/10 00:56:23;;;;;;;2.88;0.90;;;8.80;62.80;;;;;;4966924;28;114686;-78
2023/03/10 00:58:52;;;;;;;2.75;0.88;;;8.70;62.70;;;;;;4967911;28;114456;-78
2023/03/10 01:01:24;;;;;;;3.40;1.10;;;8.70;62.70;;;;;;4935657;28;114458;-79
2023/03/10 01:03:53;;;;;;;5.10;1.10;;;8.70;62.60;;;;;;4950620;28;115089;-78
2023/03/10 01:06:20;;;;;;;2.60;1.08;;;8.70;62.60;;;;;;4950818;28;114867;-78
2023/03/10 01:08:48;;;;;;;3.78;1.23;;;8.70;62.60;;;;;;4967534;28;114513;-79
2023/03/10 01:11:17;;;;;;;5.57;2.63;;;8.70;62.50;;;;;;4965623;28;115697;-79
2023/03/10 01:13:45;;;;;;;3.90;1.52;;;8.70;62.50;;;;;;4949243;28;117050;-79
2023/03/10 01:16:12;;;;;;;5.97;1.70;;;8.70;62.40;;;;;;4967393;28;117021;-79
2023/03/10 01:18:39;;;;;;;3.88;1.58;;;8.70;62.50;;;;;;4967185;28;115430;-80
2023/03/10 01:21:09;;;;;;;4.30;1.38;;;8.80;62.40;;;;;;4968559;28;114459;-79
2023/03/10 01:23:36;;;;;;;5.40;1.30;;;8.70;62.40;;;;;;4950628;28;115263;-79
2023/03/10 01:26:03;;;;;;;3.53;1.02;;;8.70;62.30;;;;;;4980863;28;115910;-80
2023/03/10 01:28:31;;;;;;;3.35;0.98;;;8.70;62.30;;;;;;4968209;28;114416;-79
2023/03/10 01:30:58;;;;;;;2.42;1.20;;;8.70;62.30;;;;;;4968523;28;116937;-78
2023/03/10 01:33:25;;;;;;;4.78;1.38;;;8.70;62.30;;;;;;4967074;28;115011;-78
2023/03/10 01:35:52;;;;;;;3.17;1.10;;;8.70;62.30;;;;;;4949874;28;114642;-78
2023/03/10 01:38:19;;;;;;;3.10;1.40;;;8.70;62.40;;;;;;4967991;28;114867;-78
2023/03/10 01:40:48;;;;;;;3.97;1.42;;;8.70;62.40;;;;;;4968338;28;114364;-79
2023/03/10 01:43:18;;;;;;;3.72;1.20;;;8.70;62.30;;;;;;4949930;28;115785;-78
2023/03/10 01:45:46;;;;;;;3.80;1.40;;;8.70;62.30;;;;;;4978743;28;114953;-78
2023/03/10 01:48:16;;;;;;;3.95;1.50;;;8.60;62.40;;;;;;4967351;28;114429;-79
2023/03/10 01:50:45;;;;;;;4.47;1.52;;;8.60;62.40;;;;;;4950448;28;115172;-78
2023/03/10 01:53:13;;;;;;;3.65;1.23;;;8.60;62.30;;;;;;4982059;28;116179;-78
2023/03/10 01:55:45;;;;;;;4.15;1.45;;;8.60;62.30;;;;;;4949316;28;114654;-79
2023/03/10 01:58:14;;;;;;;6.15;1.50;;;8.60;62.30;;;;;;4934859;28;114639;-78
2023/03/10 02:00:42;;;;;;;5.15;2.35;;;8.60;62.30;;;;;;4950973;28;114479;-78
2023/03/10 02:03:19;;;;;;;7.15;2.70;;;8.60;62.50;;;;;;4949693;28;115138;-80
2023/03/10 02:06:02;;;;;;;8.88;3.30;;;8.50;62.70;;;;;;4981814;28;117121;-80
2023/03/10 02:08:45;;;;;;;9.60;2.78;;;8.40;63.00;;;;;;4967558;28;114459;-80
2023/03/10 02:11:13;;;;;;;6.13;2.83;;;8.40;63.30;;;;;;4950467;28;114658;-80
2023/03/10 02:13:41;;;;;;;8.27;2.58;;;8.30;63.60;;;;;;4963329;28;115664;-81
2023/03/10 02:16:09;;;;;;;6.38;2.78;;;8.20;63.80;;;;;;4965229;28;116795;-80
2023/03/10 02:18:36;;;;;;;6.63;2.80;;;8.20;64.10;;;;;;4933002;28;114901;-80
2023/03/10 02:21:41;;;;;;;5.30;2.33;;;8.20;64.30;;;;;;4982028;28;114443;-80
2023/03/10 02:24:59;;;;;;;4.22;1.88;;;8.20;64.40;;;;;;4984147;28;115071;-81
2023/03/10 02:27:32;;;;;;;5.68;2.17;;;8.00;64.90;;;;;;4965823;28;116006;-80
2023/03/10 02:30:11;;;;;;;4.50;2.20;;;7.90;65.10;;;;;;4944430;28;115052;-80
2023/03/10 02:32:44;;;;;;;5.20;2.40;;;7.90;65.40;;;;;;4949861;28;114506;-80
2023/03/10 02:35:12;;;;;;;6.13;2.10;;;7.80;65.60;;;;;;4980905;28;117472;-80
2023/03/10 02:37:51;;;;;;;5.40;2.50;;;7.70;65.50;;;;;;4984098;28;114658;-80
2023/03/10 02:40:42;;;;;;;5.07;2.30;;;7.70;65.80;;;;;;4969212;28;114563;-80
2023/03/10 02:43:30;;;;;;;6.18;2.63;;;7.80;66.00;;;;;;4971754;28;114798;-80
2023/03/10 02:46:10;;;;;;;3.57;1.90;;;7.70;66.20;;;;;;4985963;28;115165;-80
2023/03/10 02:48:41;;;;;;;5.13;2.15;;;7.70;66.20;;;;;;4956267;28;116380;-80
2023/03/10 02:51:22;;;;;;;6.00;2.22;;;7.70;66.30;;;;;;4949711;28;114848;-80
2023/03/10 02:53:54;;;;;;;5.85;2.47;;;7.70;66.40;;;;;;4965702;28;114866;-80
2023/03/10 02:56:23;;;;;;;6.03;3.08;;;7.70;66.50;;;;;;4964469;28;115280;-80
2023/03/10 02:58:50;;;;;;;6.30;2.40;;;7.70;66.60;;;;;;4980383;28;115862;-80
2023/03/10 03:01:18;;;;;;;6.80;2.17;;;7.70;66.60;;;;;;4948453;28;114514;-80
2023/03/10 03:03:45;;;;;;;6.85;2.40;;;7.70;66.60;;;;;;4966151;28;115372;-80
2023/03/10 03:06:12;;;;;;;5.18;1.90;;;7.70;66.60;;;;;;4963674;28;115177;-80
2023/03/10 03:08:40;;;;;;;4.75;2.17;;;7.70;66.50;;;;;;4914835;28;117941;-81
2023/03/10 03:11:10;;;;;;;8.00;2.60;;;7.70;66.50;;;;;;4964562;28;114519;-81
2023/03/10 03:13:38;;;;;;;5.57;2.20;;;7.70;66.60;;;;;;4948284;28;114584;-81
2023/03/10 03:16:07;;;;;;;6.38;2.15;;;7.70;66.60;;;;;;4964425;28;115116;-80
2023/03/10 03:18:35;;;;;;;6.35;2.25;;;7.70;66.50;;;;;;4967431;28;116437;-80
2023/03/10 03:21:10;;;;;;;5.18;2.55;;;7.70;66.50;;;;;;4953524;28;117193;-80
2023/03/10 03:23:38;;;;;;;4.15;1.90;;;7.70;66.60;;;;;;4965765;28;114444;-80
2023/03/10 03:26:17;;;;;;;3.58;1.80;;;7.60;66.60;;;;;;4947785;28;115510;-80
2023/03/10 03:28:44;;;;;;;4.45;2.28;;;7.70;66.70;;;;;;4965796;28;114945;-80
2023/03/10 03:31:20;;;;;;;3.35;1.80;;;7.60;66.70;;;;;;4965550;28;119948;-80
2023/03/10 03:33:51;;;;;;;4.75;2.17;;;7.60;66.70;;;;;;4982121;28;114414;-80
2023/03/10 03:36:18;;;;;;;4.70;1.60;;;7.60;66.80;;;;;;4950132;28;115672;-79
2023/03/10 03:38:45;;;;;;;3.20;1.55;;;7.60;66.80;;;;;;4985520;28;115258;-80
2023/03/10 03:41:15;;;;;;;4.93;1.73;;;7.60;66.80;;;;;;4972493;28;114375;-80
2023/03/10 03:43:42;;;;;;;5.13;2.00;;;7.50;66.90;;;;;;4971979;28;114639;-80
2023/03/10 03:46:09;;;;;;;2.75;1.42;;;7.50;66.90;;;;;;5004108;28;115288;-79
2023/03/10 03:48:37;;;;;;;4.55;1.70;;;7.50;66.90;;;;;;4987035;28;114543;-80
2023/03/10 03:51:07;;;;;;;3.22;1.50;;;7.50;66.90;;;;;;4956077;28;114623;-80
2023/03/10 03:53:39;;;;;;;4.50;1.98;;;7.50;66.90;;;;;;4988536;28;114410;-80
2023/03/10 03:56:07;;;;;;;5.78;1.90;;;7.50;66.90;;;;;;4987508;28;115195;-79
2023/03/10 03:58:36;;;;;;;3.28;1.60;;;7.50;66.90;;;;;;4971875;28;114996;-79
2023/03/10 04:01:04;;;;;;;3.40;1.50;;;7.50;66.90;;;;;;4984402;28;114485;-80
2023/03/10 04:03:38;;;;;;;4.95;1.80;;;7.50;66.90;;;;;;4968291;28;114475;-80
2023/03/10 04:06:08;;;;;;;3.67;1.80;;;7.50;66.90;;;;;;4932954;28;115111;-80
2023/03/10 04:08:35;;;;;;;4.00;1.90;;;7.50;67.10;;;;;;4967511;28;114698;-80
2023/03/10 04:11:03;;;;;;;5.30;1.60;;;7.50;67.00;;;;;;4984531;28;114793;-80
2023/03/10 04:13:32;;;;;;;3.58;1.55;;;7.50;66.90;;;;;;4984604;28;114792;-80
2023/03/10 04:16:00;;;;;;;3.95;1.98;;;7.50;66.80;;;;;;4951253;28;115344;-80
2023/03/10 04:18:32;;;;;;;4.78;1.83;;;7.50;66.70;;;;;;4983471;28;115569;-80
2023/03/10 04:21:00;;;;;;;5.78;1.98;;;7.50;66.60;;;;;;4968042;28;114811;-79
2023/03/10 04:23:27;;;;;;;4.50;1.73;;;7.50;66.60;;;;;;4984621;28;114565;-79
2023/03/10 04:25:56;;;;;;;4.50;2.15;;;7.50;66.40;;;;;;4966690;28;115180;-80
2023/03/10 04:28:23;;;;;;;4.00;1.60;;;7.50;66.30;;;;;;4966650;28;114932;-80
2023/03/10 04:30:50;;;;;;;5.13;1.95;;;7.50;66.10;;;;;;4968847;28;114482;-80
2023/03/10 04:33:21;;;;;;;4.97;1.80;;;7.50;66.10;;;;;;4988970;28;117311;-80
2023/03/10 04:35:50;;;;;;;4.25;1.88;;;7.50;65.70;;;;;;4986322;28;115036;-80
2023/03/10 04:38:21;;;;;;;6.97;2.45;;;7.60;65.80;;;;;;4986107;28;116586;-80
2023/03/10 04:40:54;;;;;;;6.18;2.20;;;7.60;65.50;;;;;;4971667;28;114474;-80
2023/03/10 04:43:24;;;;;;;5.80;2.50;;;7.60;65.40;;;;;;4988171;28;114406;-80
2023/03/10 04:45:52;;;;;;;4.63;2.33;;;7.60;65.30;;;;;;4986459;28;115198;-80
2023/03/10 04:48:19;;;;;;;4.72;2.10;;;7.60;65.30;;;;;;4985671;28;114752;-80
2023/03/10 04:51:00;;;;;;;6.28;2.45;;;7.60;65.20;;;;;;4964108;28;114459;-80
2023/03/10 04:53:31;;;;;;;8.57;2.55;;;7.70;65.00;;;;;;4967965;28;114509;-80
2023/03/10 04:56:00;;;;;;;5.85;2.15;;;7.60;65.10;;;;;;4950342;28;115740;-80
2023/03/10 04:58:29;;;;;;;5.82;2.38;;;7.60;65.10;;;;;;4948100;28;115527;-80
2023/03/10 05:00:56;;;;;;;4.82;2.17;;;7.70;64.90;;;;;;4943448;28;116432;-80
2023/03/10 05:03:35;;;;;;;7.45;2.38;;;7.70;64.80;;;;;;4972191;28;114504;-80
2023/03/10 05:06:14;;;;;;;8.95;2.70;;;7.60;64.60;;;;;;4969858;28;115086;-80
2023/03/10 05:08:44;;;;;;;8.45;2.55;;;7.70;64.20;;;;;;4970411;28;114670;-78
2023/03/10 05:11:12;;;;;;;7.20;2.38;;;7.70;64.30;;;;;;4969802;28;117373;-78
2023/03/10 05:13:39;;;;;;;7.43;2.25;;;7.70;64.20;;;;;;4970930;28;117560;-78
2023/03/10 05:16:15;;;;;;;6.25;1.88;;;7.70;63.80;;;;;;4985491;28;115193;-78
2023/03/10 05:18:44;;;;;;;5.05;1.88;;;7.70;63.40;;;;;;4953794;28;115917;-78
2023/03/10 05:21:12;;;;;;;4.63;1.63;;;7.70;63.40;;;;;;4954569;28;114565;-78
2023/03/10 05:23:41;;;;;;;6.18;2.00;;;7.70;63.20;;;;;;4964932;28;114680;-79
2023/03/10 05:26:09;;;;;;;6.43;2.30;;;7.80;63.00;;;;;;4965978;28;117760;-79
2023/03/10 05:28:36;;;;;;;7.50;3.10;;;7.80;62.70;;;;;;4966746;28;118734;-79
2023/03/10 05:31:13;;;;;;;5.60;2.00;;;7.80;62.30;;;;;;4986549;28;114513;-79
2023/03/10 05:33:43;;;;;;;5.97;2.20;;;7.90;62.10;;;;;;4986705;28;114697;-79
2023/03/10 05:36:13;;;;;;;6.82;2.30;;;8.00;62.00;;;;;;4986518;28;115074;-79
2023/03/10 05:38:43;;;;;;;4.20;1.55;;;8.00;61.80;;;;;;5002046;28;114642;-79
2023/03/10 05:41:12;;;;;;;8.10;2.90;;;8.10;61.60;;;;;;4987004;28;114530;-79
2023/03/10 05:43:41;;;;;;;6.03;1.77;;;8.20;61.20;;;;;;4986568;28;114360;-79
2023/03/10 05:46:11;;;;;;;4.63;1.70;;;8.30;60.70;;;;;;4969077;28;117736;-79
2023/03/10 05:48:44;;;;;;;4.15;1.90;;;8.40;59.80;;;;;;5001601;28;115060;-79
2023/03/10 05:51:12;;;;;;;6.00;1.60;;;8.60;59.80;;;;;;4987030;28;114661;-80
2023/03/10 05:53:40;;;;;;;4.05;1.60;;;8.70;59.70;;;;;;4970314;28;114471;-80
2023/03/10 05:56:15;;;;;;;4.55;1.80;;;9.00;58.90;;;;;;5001716;28;115300;-81
2023/03/10 05:58:45;;;;;;;4.60;1.80;;;9.20;58.60;;;;;;4984842;28;116602;-81
2023/03/10 06:01:14;;;;;;;5.30;1.70;;;9.20;58.10;;;;;;4986683;28;114752;-80
2023/03/10 06:03:43;;;;;;;4.68;1.77;;;9.40;57.80;;;;;;4987357;28;114237;-80
2023/03/10 06:06:11;;;;;;;5.22;1.83;;;9.50;57.40;;;;;;4972489;28;115682;-80
2023/03/10 06:08:38;;;;;;;3.95;1.50;;;9.70;56.60;;;;;;4965519;28;114743;-79
2023/03/10 06:11:05;;;;;;;5.15;1.90;;;9.70;57.10;;;;;;4965707;28;115241;-80
2023/03/10 06:13:33;;;;;;;4.65;1.90;;;9.80;57.00;;;;;;4982524;28;114758;-80
2023/03/10 06:16:02;;;;;;;4.78;1.70;;;9.90;56.70;;;;;;4966497;28;116380;-80
2023/03/10 06:18:29;;;;;;;4.57;1.90;;;10.10;56.20;;;;;;4966259;28;114678;-81
2023/03/10 06:20:56;;;;;;;5.88;1.95;;;10.20;56.20;;;;;;4966184;28;114532;-81
2023/03/10 06:23:24;;;;;;;5.55;1.63;;;10.30;56.40;;;;;;4967371;28;114545;-81
2023/03/10 06:26:07;;;;;;;2.47;1.05;;;10.40;55.60;;;;;;4948909;28;115249;-80
2023/03/10 06:28:36;;;;;;;4.05;1.58;;;10.50;53.60;;;;;;4949224;28;114698;-80
2023/03/10 06:31:11;;;;;;;4.28;1.10;;;10.50;53.70;;;;;;4965632;28;114881;-80
2023/03/10 06:33:38;;;;;;;3.40;1.08;;;10.60;53.10;;;;;;4950565;28;114614;-80
2023/03/10 06:36:08;;;;;;;2.17;0.95;;;10.70;52.90;;;;;;4948573;28;115695;-80
2023/03/10 06:38:35;;;;;;;2.47;1.10;;;10.70;52.60;;;;;;4974097;28;115302;-80
2023/03/10 06:41:02;;;;;;;2.22;1.10;;;10.70;52.50;;;;;;4986282;28;114529;-80
2023/03/10 06:43:31;;;;;;;3.83;1.20;;;10.70;51.80;;;;;;4973790;28;118073;-80
2023/03/10 06:45:58;;;;;;;3.70;1.30;;;10.80;51.60;;;;;;4965965;28;115183;-80
2023/03/10 06:48:25;;;;;;;2.90;1.38;;;10.80;51.60;;;;;;4947723;28;114679;-80
2023/03/10 06:50:52;;;;;;;3.92;1.52;;;10.80;51.50;;;;;;4966434;28;114580;-80
2023/03/10 06:53:20;;;;;;;4.68;1.70;;;10.80;51.40;;;;;;4949574;28;114471;-80
2023/03/10 06:56:06;;;;;;;7.90;2.60;;;10.80;51.40;;;;;;4946311;28;115213;-80
2023/03/10 06:58:34;;;;;;;5.35;2.17;;;10.80;52.70;;;;;;4965968;28;114670;-79
2023/03/10 07:01:01;;;;;;;4.88;2.10;;;10.70;53.40;;;;;;4966766;28;114739;-79
2023/03/10 07:03:28;;;;;;;6.15;2.47;;;10.50;53.60;;;;;;4948743;28;114571;-81
2023/03/10 07:05:58;;;;;;;5.50;1.88;;;10.40;54.10;;;;;;4965655;28;115212;-80
2023/03/10 07:08:26;;;;;;;4.50;2.10;;;10.30;54.30;;;;;;4965385;28;115193;-80
2023/03/10 07:10:54;;;;;;;5.78;1.92;;;10.20;54.60;;;;;;4966764;28;114439;-80
2023/03/10 07:13:22;;;;;;;4.85;2.10;;;10.10;54.70;;;;;;4970786;28;114547;-79
2023/03/10 07:15:49;;;;;;;5.95;2.40;;;10.20;54.20;;;;;;4968028;28;115276;-80
2023/03/10 07:18:19;;;;;;;4.15;1.60;;;10.20;54.80;;;;;;4967831;28;115421;-80
2023/03/10 07:20:51;;;;;;;3.45;1.40;;;10.30;54.20;;;;;;4969845;28;114552;-79
2023/03/10 07:23:19;;;;;;;3.67;1.35;;;10.40;53.40;;;;;;4970383;28;114638;-80
2023/03/10 07:25:53;;;;;;;3.58;1.55;;;10.70;53.40;;;;;;4968573;28;115130;-81
2023/03/10 07:28:20;;;;;;;4.00;1.65;;;10.70;52.40;;;;;;4967624;28;115400;-80
2023/03/10 07:30:48;;;;;;;3.70;1.60;;;10.90;52.00;;;;;;4969764;28;114512;-84
2023/03/10 07:33:15;;;;;;;3.78;1.40;;;11.00;51.80;;;;;;4969581;28;114794;-80
2023/03/10 07:35:43;;;;;;;6.18;1.80;;;11.10;51.60;;;;;;4971768;28;115133;-80
2023/03/10 07:38:10;;;;;;;4.35;1.70;;;11.20;51.20;;;;;;4987629;28;114822;-80
2023/03/10 07:40:40;;;;;;;4.18;1.65;;;11.30;50.70;;;;;;5004398;28;117953;-81
2023/03/10 07:43:08;;;;;;;12.43;3.45;;;11.50;50.30;;;;;;4989306;28;114529;-82
2023/03/10 07:45:36;;;;;;;4.38;1.70;;;11.60;50.20;;;;;;4987596;28;115190;-82
2023/03/10 07:48:04;;;;;;;4.60;2.00;;;11.70;50.10;;;;;;4953715;28;114709;-79
2023/03/10 07:50:31;;;;;;;4.00;1.30;;;11.70;50.20;;;;;;5004716;28;114649;-80
2023/03/10 07:52:58;;;;;;;4.03;1.90;;;11.80;50.00;;;;;;4989115;28;114459;-79
2023/03/10 07:55:25;;;;;;;3.00;1.42;;;11.90;50.10;;;;;;4986752;28;115125;-80
2023/03/10 07:57:55;;;;;;;4.25;1.70;;;12.00;50.20;;;;;;4988089;28;114636;-80
2023/03/10 08:00:22;;;;;;;5.82;1.88;;;12.10;50.10;;;;;;4987980;28;114429;-80
2023/03/10 08:02:50;;;;;;;4.38;1.75;;;12.20;50.10;;;;;;4989232;28;114473;-79
2023/03/10 08:05:17;;;;;;;3.78;1.63;;;12.40;49.80;;;;;;4970245;28;115768;-80
2023/03/10 08:07:47;;;;;;;6.38;3.97;;;12.60;49.80;;;;;;4987817;28;115558;-81
2023/03/10 08:10:14;;;;;;;4.78;1.73;;;12.70;49.60;;;;;;4971077;28;114534;-79
2023/03/10 08:12:42;;;;;;;5.25;1.85;;;12.70;49.50;;;;;;4989057;28;114399;-81
2023/03/10 08:15:10;;;;;;;5.32;1.70;;;12.80;49.20;;;;;;4986752;28;115042;-81
2023/03/10 08:17:37;;;;;;;5.30;1.92;;;12.80;49.00;;;;;;4953753;28;117685;-81
2023/03/10 08:20:06;;;;;;;7.22;2.00;;;12.80;49.30;;;;;;4987332;28;114388;-81
2023/03/10 08:22:33;;;;;;;4.03;1.60;;;12.80;49.10;;;;;;4987322;28;114553;-79
2023/03/10 08:25:00;;;;;;;5.47;2.00;;;12.80;49.30;;;;;;4996676;28;117180;-80
2023/03/10 08:27:28;;;;;;;4.55;1.98;;;12.80;49.50;;;;;;4969537;28;114702;-81
2023/03/10 08:29:56;;;;;;;4.15;2.00;;;12.80;49.30;;;;;;4988682;28;115202;-79
2023/03/10 08:32:23;;;;;;;5.07;1.83;;;12.90;49.40;;;;;;4986887;28;114615;-80
2023/03/10 08:34:50;;;;;;;5.55;2.65;;;12.90;49.40;;;;;;4985986;28;115184;-79
2023/03/10 08:37:17;;;;;;;4.60;1.92;;;13.00;49.30;;;;;;4986587;28;114815;-80
2023/03/10 08:39:45;;;;;;;6.85;2.30;;;13.10;49.20;;;;;;4988420;28;114401;-80
2023/03/10 08:42:15;;;;;;;6.40;3.38;;;13.10;49.40;;;;;;4988513;28;114613;-80
2023/03/10 08:44:45;;;;;;;6.25;2.40;;;13.10;49.30;;;;;;4987497;28;115224;-81
2023/03/10 08:47:18;;;;;;;4.45;2.03;;;13.10;49.30;;;;;;4969945;28;118604;-81
2023/03/10 08:49:45;;;;;;;7.13;2.45;;;13.20;49.60;;;;;;4964780;28;114939;-80
2023/03/10 08:52:15;;;;;;;6.57;3.03;;;13.20;49.50;;;;;;4968437;28;114605;-80
2023/03/10 08:54:42;;;;;;;5.20;2.55;;;13.20;49.40;;;;;;4974929;28;118880;-82
2023/03/10 08:57:10;;;;;;;7.47;2.67;;;13.20;49.30;;;;;;4987126;28;114658;-80
2023/03/10 08:59:37;;;;;;;7.20;3.08;;;13.20;49.20;;;;;;4986863;28;114705;-82
2023/03/10 09:02:04;;;;;;;7.13;2.67;;;13.20;49.30;;;;;;4988280;28;114442;-80
2023/03/10 09:04:32;;;;;;;5.00;2.47;;;13.20;49.50;;;;;;4987012;28;115710;-80
2023/03/10 09:06:59;;;;;;;6.35;2.45;;;13.20;49.20;;;;;;4986987;28;115174;-81
2023/03/10 09:09:26;;;;;;;4.68;2.10;;;13.20;49.10;;;;;;4988198;28;114759;-80
2023/03/10 09:11:53;;;;;;;7.30;2.60;;;13.20;49.30;;;;;;4968526;28;118269;-81
2023/03/10 09:14:20;;;;;;;8.65;2.95;;;13.20;49.40;;;;;;4966978;28;116557;-81
2023/03/10 09:16:48;;;;;;;7.45;3.20;;;13.30;49.50;;;;;;4981992;28;116110;-80
2023/03/10 09:19:15;;;;;;;4.78;2.38;;;13.30;49.50;;;;;;4988118;28;114602;-81
2023/03/10 09:21:43;;;;;;;6.97;2.75;;;13.40;49.50;;;;;;4987885;28;114525;-79
2023/03/10 09:24:10;;;;;;;7.95;2.80;;;13.50;49.50;;;;;;4985529;28;115170;-80
2023/03/10 09:26:37;;;;;;;4.90;2.55;;;13.60;49.50;;;;;;4986990;28;114950;-79
2023/03/10 09:29:07;;;;;;;7.60;3.10;;;13.70;49.30;;;;;;4986394;28;114549;-79
2023/03/10 09:31:35;;;;;;;6.90;3.08;;;13.80;49.10;;;;;;4970221;28;114710;-80
2023/03/10 09:34:02;;;;;;;8.30;2.90;;;13.90;49.00;;;;;;4984579;28;115179;-80
2023/03/10 09:36:30;;;;;;;10.07;2.92;;;14.00;48.80;;;;;;4969174;28;114655;-79
2023/03/10 09:38:57;;;;;;;7.32;3.20;;;14.20;49.00;;;;;;4969647;28;116790;-79
2023/03/10 09:41:45;;;;;;;8.48;3.03;;;14.30;48.60;;;;;;4987494;28;114638;-79
2023/03/10 09:44:53;;;;;;;6.43;3.08;;;14.50;48.30;;;;;;5001893;28;114836;-80
2023/03/10 09:48:13;;;;;;;9.23;3.20;;;14.60;48.60;;;;;;4985177;28;114865;-80
2023/03/10 09:50:49;;;;;;;7.97;3.50;;;14.70;48.10;;;;;;4986284;28;114515;-79
2023/03/10 09:53:28;;;;;;;10.60;4.03;;;14.70;47.70;;;;;;4966121;28;114596;-80
2023/03/10 09:55:56;;;;;;;8.40;4.18;;;14.80;47.60;;;;;;4965494;28;115691;-82
2023/03/10 09:58:38;;;;;;;7.72;3.75;;;14.90;47.60;;;;;;4966384;28;115375;-81
2023/03/10 10:01:05;;;;;;;6.82;3.13;;;15.10;47.40;;;;;;4986103;28;114727;-80
2023/03/10 10:03:41;;;;;;;5.93;3.10;;;15.10;47.50;;;;;;4986330;28;114853;-80
2023/03/10 10:06:35;;;;;;;9.75;3.20;;;15.20;46.80;;;;;;4984894;28;115092;-80
2023/03/10 10:09:10;;;;;;;5.40;2.70;;;15.30;46.60;;;;;;4970557;28;114756;-81
2023/03/10 10:11:38;;;;;;;5.63;2.80;;;15.30;46.50;;;;;;4985747;28;114713;-81
2023/03/10 10:14:20;;;;;;;6.55;2.50;;;15.30;46.60;;;;;;4966808;28;114603;-80
2023/03/10 10:17:22;;;;;;;6.28;2.83;;;15.30;46.20;;;;;;4965148;28;115246;-81
2023/03/10 10:19:50;;;;;;;7.13;2.90;;;15.20;46.80;;;;;;4957901;28;114685;-83
2023/03/10 10:22:26;;;;;;;7.07;3.10;;;15.20;46.60;;;;;;4950266;28;114988;-81
2023/03/10 10:25:08;;;;;;;6.80;3.13;;;15.20;46.70;;;;;;4966471;28;114563;-83
2023/03/10 10:27:36;;;;;;;5.18;3.00;;;15.20;46.80;;;;;;4966478;28;115753;-82
2023/03/10 10:30:38;;;;;;;5.75;2.53;;;15.10;46.50;;;;;;4965105;28;118301;-82
2023/03/10 10:33:10;;;;;;;14.57;7.72;;;15.20;46.60;;;;;;4967021;28;114565;-81
2023/03/10 10:35:59;;;;;;;7.22;3.40;;;15.10;46.80;;;;;;4966181;28;114462;-81
2023/03/10 10:38:29;;;;;;;6.18;3.13;;;15.20;46.90;;;;;;4948276;28;116754;-81
2023/03/10 10:41:02;;;;;;;7.13;3.40;;;15.20;46.80;;;;;;4964634;28;115809;-81
2023/03/10 10:43:42;;;;;;;5.70;2.70;;;15.30;46.60;;;;;;4965115;28;114573;-81
2023/03/10 10:46:10;;;;;;;6.63;2.80;;;15.40;46.60;;;;;;4965824;28;114666;-82
2023/03/10 10:48:45;;;;;;;6.55;2.92;;;15.30;46.60;;;;;;4964136;28;115651;-81
2023/03/10 10:51:27;;;;;;;8.75;3.30;;;15.40;46.70;;;;;;4977677;28;117281;-81
2023/03/10 10:53:58;;;;;;;5.78;3.65;;;15.60;46.40;;;;;;4985510;28;114735;-81
2023/03/10 10:56:29;;;;;;;6.22;3.15;;;15.50;46.30;;;;;;4985198;28;114550;-79
2023/03/10 10:59:17;;;;;;;6.38;3.08;;;15.50;46.60;;;;;;4984620;28;118249;-81
2023/03/10 11:01:58;;;;;;;5.90;3.00;;;15.60;46.40;;;;;;4968796;28;116266;-81
2023/03/10 11:04:28;;;;;;;6.60;2.72;;;15.60;46.70;;;;;;4986335;28;114412;-81
2023/03/10 11:07:18;;;;;;;8.18;2.90;;;15.70;46.60;;;;;;4956282;28;116043;-80
2023/03/10 11:09:46;;;;;;;4.78;2.55;;;15.70;46.30;;;;;;4964079;28;115120;-80
2023/03/10 11:12:35;;;;;;;6.90;2.97;;;15.70;46.50;;;;;;4964312;28;114739;-80
2023/03/10 11:15:07;;;;;;;6.88;3.03;;;15.80;46.30;;;;;;4946241;28;114542;-80
2023/03/10 11:18:11;;;;;;;7.05;4.05;;;15.90;46.20;;;;;;4965242;28;114622;-80
2023/03/10 11:20:57;;;;;;;10.32;3.90;;;15.90;45.80;;;;;;4965347;28;115797;-81
2023/03/10 11:24:13;;;;;;;6.97;3.53;;;16.00;45.90;;;;;;4964448;28;116649;-80
2023/03/10 11:27:08;;;;;;;5.85;2.90;;;16.10;46.20;;;;;;4966642;28;114580;-80
2023/03/10 11:30:00;;;;;;;5.85;2.88;;;16.10;45.70;;;;;;4965425;28;114606;-80
2023/03/10 11:32:50;;;;;;;8.63;3.45;;;16.10;45.80;;;;;;4966837;28;115689;-80
2023/03/10 11:36:04;;;;;;;7.68;3.42;;;16.00;45.70;;;;;;4982660;28;115089;-80
2023/03/10 11:38:41;;;;;;;8.25;3.20;;;16.00;45.50;;;;;;4971231;28;114640;-80
2023/03/10 11:41:26;;;;;;;9.23;3.40;;;16.00;45.70;;;;;;4967461;28;114891;-80
2023/03/10 11:44:02;;;;;;;17.45;9.70;;;16.00;45.80;;;;;;4966795;28;115161;-80
2023/03/10 11:47:02;;;;;;;10.45;4.10;;;16.00;45.80;;;;;;4982819;28;117676;-80
2023/03/10 11:49:35;;;;;;;8.20;3.35;;;16.10;45.40;;;;;;4982663;28;114643;-81
2023/03/10 11:52:13;;;;;;;9.00;3.50;;;16.00;45.60;;;;;;4983746;28;114962;-80
2023/03/10 11:54:47;;;;;;;6.00;3.20;;;16.00;44.90;;;;;;4982452;28;115732;-80
2023/03/10 11:57:19;;;;;;;6.93;3.13;;;16.00;44.90;;;;;;4968968;28;114965;-80
2023/03/10 11:59:56;;;;;;;5.82;3.10;;;16.00;44.70;;;;;;4987877;28;115497;-79
2023/03/10 12:02:37;;;;;;;8.13;3.30;;;16.00;44.60;;;;;;4988029;28;114807;-81
2023/03/10 12:05:19;;;;;;;6.05;3.00;;;16.00;44.30;;;;;;4969511;28;115212;-81
2023/03/10 12:07:50;;;;;;;6.22;3.08;;;16.00;44.20;;;;;;4970839;28;116244;-81
2023/03/10 12:10:20;;;;;;;6.60;3.25;;;16.00;44.20;;;;;;4970513;28;115175;-82
2023/03/10 12:12:49;;;;;;;5.57;2.92;;;16.00;44.30;;;;;;4979457;28;114605;-81
2023/03/10 12:15:29;;;;;;;5.63;2.88;;;16.10;43.90;;;;;;4933744;28;115185;-82
2023/03/10 12:17:56;;;;;;;5.88;3.17;;;16.10;43.60;;;;;;4979575;28;114663;-82
2023/03/10 12:20:29;;;;;;;7.30;3.20;;;16.10;43.70;;;;;;4970163;28;114888;-81
2023/03/10 12:23:09;;;;;;;6.53;3.00;;;16.10;43.40;;;;;;4986755;28;114930;-81
2023/03/10 12:25:39;;;;;;;7.15;3.22;;;16.10;43.60;;;;;;4963336;28;115293;-81
2023/03/10 12:28:26;;;;;;;9.40;2.90;;;16.00;43.70;;;;;;4986658;28;114918;-81
2023/03/10 12:31:45;;;;;;;8.95;3.50;;;16.10;43.80;;;;;;4969907;28;116755;-81
2023/03/10 12:34:26;;;;;;;7.53;2.95;;;16.00;43.80;;;;;;4985091;28;114550;-80
2023/03/10 12:37:20;;;;;;;5.82;2.83;;;15.90;44.10;;;;;;4954503;28;116961;-81
2023/03/10 12:39:48;;;;;;;11.50;3.63;;;15.80;44.10;;;;;;4969026;28;114701;-81
2023/03/10 12:42:38;;;;;;;7.75;2.90;;;15.80;44.30;;;;;;4969846;28;114479;-81
2023/03/10 12:45:27;;;;;;;6.25;2.70;;;15.80;43.90;;;;;;4986130;28;114668;-80
2023/03/10 12:48:00;;;;;;;5.57;2.70;;;15.70;43.90;;;;;;4979629;28;115228;-81
2023/03/10 12:50:52;;;;;;;7.25;2.95;;;15.70;44.00;;;;;;4949394;28;116962;-80
2023/03/10 12:53:38;;;;;;;6.18;3.20;;;15.70;44.20;;;;;;4950065;28;114876;-81
2023/03/10 12:56:11;;;;;;;8.23;3.25;;;15.80;44.30;;;;;;4935780;28;114626;-82
2023/03/10 12:59:05;;;;;;;5.90;3.47;;;15.70;44.60;;;;;;4966260;28;117638;-81
2023/03/10 13:01:37;;;;;;;5.78;2.95;;;15.80;44.70;;;;;;4975315;28;115760;-82
2023/03/10 13:04:15;;;;;;;6.82;3.20;;;15.80;44.30;;;;;;4971655;28;114442;-81
2023/03/10 13:06:43;;;;;;;8.27;2.80;;;15.70;44.50;;;;;;4970775;28;114721;-80
2023/03/10 13:09:27;;;;;;;7.28;2.90;;;15.70;44.60;;;;;;4985439;28;116378;-81